Time;durP1;ratioP1;P1;durP2;ratioP2;P2;SDS_P1;SDS_P2;PMS_P1;PMS_P2;Temp;Humidity;BMP_temperature;BMP_pressure;BME280_temperature;BME280_humidity;BME280_pressure;Samples;Min_cycle;Max_cycle;Signal;HPM_P1;HPM_P2
2022/07/31 00:01:14;;;;;;;15.10;13.70;;;;;;;16.66;100.00;98313.73;105248;1271;62522;-70
2022/07/31 00:03:41;;;;;;;14.90;13.60;;;;;;;16.65;100.00;98314.00;105266;1271;62071;-69
2022/07/31 00:06:08;;;;;;;14.90;13.50;;;;;;;16.64;100.00;98314.55;105256;1271;62066;-68
2022/07/31 00:08:34;;;;;;;13.40;12.10;;;;;;;16.63;100.00;98312.80;105011;1271;62075;-69
2022/07/31 00:11:00;;;;;;;10.70;9.70;;;;;;;16.63;100.00;98307.83;105218;1271;62180;-69
2022/07/31 00:13:26;;;;;;;9.00;8.20;;;;;;;16.62;100.00;98307.84;105261;1271;61946;-70
2022/07/31 00:15:53;;;;;;;6.20;5.80;;;;;;;16.63;100.00;98309.41;105231;1268;62172;-68
2022/07/31 00:18:19;;;;;;;8.70;5.90;;;;;;;16.63;100.00;98309.61;105273;1271;63093;-70
2022/07/31 00:20:45;;;;;;;7.10;6.40;;;;;;;16.65;100.00;98308.68;105299;1268;62008;-70
2022/07/31 00:23:11;;;;;;;7.00;5.90;;;;;;;16.66;100.00;98311.59;105347;1271;62144;-70
2022/07/31 00:25:37;;;;;;;5.80;5.10;;;;;;;16.67;100.00;98309.85;105293;1271;62072;-71
2022/07/31 00:28:03;;;;;;;6.40;5.00;;;;;;;16.69;100.00;98308.81;105261;1269;62695;-70
2022/07/31 00:30:29;;;;;;;5.60;4.30;;;;;;;16.69;100.00;98307.39;104982;1271;62300;-70
2022/07/31 00:32:55;;;;;;;6.90;4.10;;;;;;;16.68;100.00;98307.83;105232;1271;62203;-68
2022/07/31 00:35:21;;;;;;;4.50;3.60;;;;;;;16.68;100.00;98307.45;105226;1271;62148;-69
2022/07/31 00:37:47;;;;;;;4.80;3.70;;;;;;;16.68;100.00;98310.52;105203;1269;62191;-69
2022/07/31 00:40:15;;;;;;;4.20;3.60;;;;;;;16.67;100.00;98312.90;105165;1271;62253;-68
2022/07/31 00:42:42;;;;;;;4.80;4.20;;;;;;;16.68;100.00;98310.98;105231;1271;62200;-70
2022/07/31 00:45:10;;;;;;;4.70;4.00;;;;;;;16.71;100.00;98312.36;105233;1268;76247;-68
2022/07/31 00:47:36;;;;;;;5.60;4.40;;;;;;;16.72;100.00;98312.46;105230;1269;69312;-68
2022/07/31 00:50:03;;;;;;;4.20;3.80;;;;;;;16.73;100.00;98312.41;105215;1271;62063;-68
2022/07/31 00:52:30;;;;;;;6.00;3.90;;;;;;;16.72;100.00;98310.09;105390;1269;62101;-68
2022/07/31 00:54:56;;;;;;;6.30;3.80;;;;;;;16.72;100.00;98307.96;105249;1271;62167;-69
2022/07/31 00:57:21;;;;;;;6.30;4.80;;;;;;;16.72;100.00;98302.78;105268;1268;62068;-69
2022/07/31 00:59:48;;;;;;;6.70;3.90;;;;;;;16.71;100.00;98297.16;105270;1268;62453;-69
2022/07/31 01:02:13;;;;;;;4.40;4.00;;;;;;;16.70;100.00;98294.90;105249;1268;62156;-69
2022/07/31 01:04:39;;;;;;;3.90;3.50;;;;;;;16.70;100.00;98297.59;105211;1271;62252;-69
2022/07/31 01:07:06;;;;;;;3.00;2.70;;;;;;;16.71;100.00;98296.81;105263;1268;62135;-69
2022/07/31 01:09:32;;;;;;;4.00;2.60;;;;;;;16.71;100.00;98296.77;105025;1271;62265;-69
2022/07/31 01:12:19;;;;;;;3.20;2.90;;;;;;;16.69;100.00;98297.86;105288;1268;62183;-69
2022/07/31 01:14:48;;;;;;;4.80;3.40;;;;;;;16.68;100.00;98298.84;105241;1268;62068;-69
2022/07/31 01:17:16;;;;;;;4.30;3.90;;;;;;;16.67;100.00;98298.78;105253;1268;62390;-69
2022/07/31 01:19:47;;;;;;;4.50;4.20;;;;;;;16.66;100.00;98295.58;105187;1269;75838;-69
2022/07/31 01:22:15;;;;;;;5.20;4.80;;;;;;;16.68;100.00;98297.80;105213;1268;70337;-69
2022/07/31 01:24:58;;;;;;;6.00;5.30;;;;;;;16.67;100.00;98298.58;105192;1268;72264;-70
2022/07/31 01:27:36;;;;;;;7.70;7.10;;;;;;;16.66;100.00;98295.31;105264;1268;62160;-70
2022/07/31 01:30:03;;;;;;;9.30;8.60;;;;;;;16.65;100.00;98292.84;105267;1268;61992;-69
2022/07/31 01:32:36;;;;;;;5.50;4.90;;;;;;;16.65;100.00;98297.05;105155;1271;76321;-70
2022/07/31 01:35:24;;;;;;;4.90;4.50;;;;;;;16.63;100.00;98296.63;105322;1271;69226;-70
2022/07/31 01:38:03;;;;;;;7.20;5.50;;;;;;;16.61;100.00;98295.27;105282;1271;73193;-69
2022/07/31 01:40:39;;;;;;;4.60;4.30;;;;;;;16.60;100.00;98296.27;105265;1271;62155;-69
2022/07/31 01:43:22;;;;;;;5.10;4.00;;;;;;;16.59;100.00;98295.27;105262;1271;62120;-68
2022/07/31 01:45:56;;;;;;;3.20;2.90;;;;;;;16.58;100.00;98294.62;105293;1268;76056;-69
2022/07/31 01:48:23;;;;;;;2.50;2.30;;;;;;;16.57;100.00;98292.80;105328;1270;68204;-68
2022/07/31 01:50:51;;;;;;;3.10;2.80;;;;;;;16.58;100.00;98293.47;105319;1271;73277;-68
2022/07/31 01:53:20;;;;;;;2.90;2.80;;;;;;;16.59;100.00;98286.56;105424;1271;62168;-68
2022/07/31 01:55:48;;;;;;;5.20;2.70;;;;;;;16.59;100.00;98285.41;105322;1268;62064;-70
2022/07/31 01:58:18;;;;;;;3.30;3.00;;;;;;;16.58;100.00;98280.39;105316;1271;77155;-69
2022/07/31 02:00:44;;;;;;;3.30;2.80;;;;;;;16.53;100.00;98276.36;105305;1271;70543;-71
2022/07/31 02:03:12;;;;;;;2.90;2.60;;;;;;;16.53;100.00;98277.27;105259;1271;74336;-68
2022/07/31 02:05:41;;;;;;;3.30;3.00;;;;;;;16.52;100.00;98276.78;105267;1271;62193;-68
2022/07/31 02:08:08;;;;;;;3.70;3.10;;;;;;;16.51;100.00;98274.95;105226;1271;62116;-68
2022/07/31 02:10:37;;;;;;;3.70;3.40;;;;;;;16.51;100.00;98270.48;104951;1271;73302;-68
2022/07/31 02:13:04;;;;;;;4.10;3.80;;;;;;;16.52;100.00;98270.40;105237;1269;70339;-69
2022/07/31 02:15:31;;;;;;;7.00;6.30;;;;;;;16.52;100.00;98269.17;105034;1271;73874;-69
2022/07/31 02:17:59;;;;;;;16.80;15.40;;;;;;;16.51;100.00;98268.48;105285;1268;62138;-69
2022/07/31 02:20:26;;;;;;;21.70;20.10;;;;;;;16.51;100.00;98266.59;105220;1271;62030;-70
2022/07/31 02:22:54;;;;;;;23.60;21.70;;;;;;;16.50;100.00;98264.70;105208;1270;77192;-70
2022/07/31 02:25:20;;;;;;;23.30;21.30;;;;;;;16.50;100.00;98260.40;105298;1271;69359;-69
2022/07/31 02:27:48;;;;;;;22.50;20.40;;;;;;;16.50;100.00;98259.86;105249;1268;62094;-69
2022/07/31 02:30:15;;;;;;;16.30;14.80;;;;;;;16.49;100.00;98258.45;105068;1271;62141;-69
2022/07/31 02:32:45;;;;;;;17.10;15.60;;;;;;;16.49;100.00;98258.91;105075;1271;62126;-69
2022/07/31 02:35:14;;;;;;;12.30;11.10;;;;;;;16.48;100.00;98256.85;105247;1268;77147;-69
2022/07/31 02:37:43;;;;;;;3.70;3.50;;;;;;;16.46;100.00;98261.69;105244;1271;70439;-69
2022/07/31 02:40:11;;;;;;;2.50;2.30;;;;;;;16.42;100.00;98262.23;105221;1268;73582;-69
2022/07/31 02:42:39;;;;;;;2.70;2.40;;;;;;;16.41;100.00;98260.79;104972;1271;62168;-69
2022/07/31 02:45:10;;;;;;;3.80;2.60;;;;;;;16.40;100.00;98258.86;105201;1268;61978;-69
2022/07/31 02:47:37;;;;;;;3.10;2.90;;;;;;;16.39;100.00;98261.09;105245;1268;76979;-69
2022/07/31 02:50:04;;;;;;;2.50;2.30;;;;;;;16.39;100.00;98262.55;105270;1268;69246;-69
2022/07/31 02:52:32;;;;;;;2.80;2.60;;;;;;;16.38;100.00;98259.05;105283;1271;73222;-69
2022/07/31 02:54:59;;;;;;;2.10;2.00;;;;;;;16.39;100.00;98261.10;105230;1268;62924;-69
2022/07/31 02:57:25;;;;;;;2.40;2.20;;;;;;;16.39;100.00;98259.36;105285;1268;62514;-69
2022/07/31 02:59:51;;;;;;;2.00;1.50;;;;;;;16.39;100.00;98260.90;105230;1268;62158;-69
2022/07/31 03:02:17;;;;;;;1.40;1.20;;;;;;;16.38;100.00;98262.17;105254;1268;62179;-69
2022/07/31 03:04:43;;;;;;;1.30;1.20;;;;;;;16.35;100.00;98260.09;105230;1268;62240;-69
2022/07/31 03:07:09;;;;;;;2.80;1.40;;;;;;;16.33;100.00;98264.15;105218;1268;62264;-69
2022/07/31 03:09:35;;;;;;;1.40;1.30;;;;;;;16.32;100.00;98265.65;105185;1271;62181;-68
2022/07/31 03:12:02;;;;;;;1.00;1.00;;;;;;;16.28;100.00;98267.27;105177;1269;62072;-68
2022/07/31 03:14:29;;;;;;;1.10;1.00;;;;;;;16.24;100.00;98268.03;104883;1268;62153;-70
2022/07/31 03:16:57;;;;;;;1.00;0.90;;;;;;;16.21;100.00;98267.05;105251;1268;62682;-68
2022/07/31 03:19:24;;;;;;;1.30;1.20;;;;;;;16.20;100.00;98270.92;105242;1268;62120;-69
2022/07/31 03:21:51;;;;;;;0.80;0.80;;;;;;;16.19;100.00;98271.58;105000;1271;62985;-69
2022/07/31 03:24:18;;;;;;;1.10;1.00;;;;;;;16.18;100.00;98271.14;105265;1268;77054;-70
2022/07/31 03:26:44;;;;;;;1.20;1.20;;;;;;;16.16;100.00;98273.36;105233;1268;62042;-69
2022/07/31 03:29:10;;;;;;;1.40;1.30;;;;;;;16.14;100.00;98275.52;105273;1268;62150;-69
2022/07/31 03:31:36;;;;;;;2.00;1.60;;;;;;;16.15;100.00;98279.23;105081;1269;62346;-69
2022/07/31 03:34:02;;;;;;;1.90;1.60;;;;;;;16.13;100.00;98277.75;105219;1268;62187;-69
2022/07/31 03:36:29;;;;;;;1.80;1.70;;;;;;;16.11;100.00;98283.30;105243;1268;62139;-69
2022/07/31 03:38:55;;;;;;;1.40;1.30;;;;;;;16.10;100.00;98281.28;105227;1268;62124;-70
2022/07/31 03:41:21;;;;;;;1.90;1.80;;;;;;;16.09;100.00;98285.34;105247;1268;62509;-69
2022/07/31 03:43:48;;;;;;;3.30;1.50;;;;;;;16.09;100.00;98286.95;105186;1268;62160;-71
2022/07/31 03:46:18;;;;;;;1.20;1.20;;;;;;;16.09;100.00;98287.86;105294;1268;62110;-69
2022/07/31 03:48:45;;;;;;;1.60;1.50;;;;;;;16.08;100.00;98291.55;105261;1268;77096;-69
2022/07/31 03:51:12;;;;;;;1.70;1.60;;;;;;;16.05;100.00;98289.16;105230;1268;69211;-68
2022/07/31 03:53:38;;;;;;;2.30;1.70;;;;;;;16.02;100.00;98290.93;105187;1268;73602;-69
2022/07/31 03:56:06;;;;;;;1.70;1.60;;;;;;;16.01;100.00;98288.47;105282;1268;62049;-69
2022/07/31 03:58:32;;;;;;;1.40;1.30;;;;;;;15.99;100.00;98291.20;105260;1271;61918;-69
2022/07/31 04:00:58;;;;;;;1.10;1.10;;;;;;;15.98;100.00;98290.08;105248;1268;62171;-69
2022/07/31 04:03:30;;;;;;;1.20;1.20;;;;;;;15.97;100.00;98292.86;105241;1268;62091;-69
2022/07/31 04:05:56;;;;;;;1.20;1.10;;;;;;;15.94;100.00;98290.58;105181;1271;74501;-69
2022/07/31 04:08:22;;;;;;;1.10;1.10;;;;;;;15.91;100.00;98293.27;105281;1268;62161;-69
2022/07/31 04:10:48;;;;;;;1.40;1.30;;;;;;;15.86;100.00;98292.63;104896;1271;62261;-70
2022/07/31 04:13:14;;;;;;;1.70;1.60;;;;;;;15.84;100.00;98298.25;105290;1268;62149;-70
2022/07/31 04:15:40;;;;;;;1.50;1.40;;;;;;;15.81;100.00;98298.71;105314;1268;62498;-71
2022/07/31 04:18:06;;;;;;;3.60;2.30;;;;;;;15.79;100.00;98301.72;105356;1268;62173;-70
2022/07/31 04:20:33;;;;;;;1.70;1.60;;;;;;;15.78;100.00;98300.77;105275;1269;62049;-70
2022/07/31 04:22:58;;;;;;;2.30;1.60;;;;;;;15.75;100.00;98305.55;105297;1271;62201;-69
2022/07/31 04:25:25;;;;;;;1.70;1.60;;;;;;;15.73;100.00;98305.59;105263;1271;62033;-69
2022/07/31 04:27:51;;;;;;;1.70;1.50;;;;;;;15.71;100.00;98306.54;105272;1271;62180;-68
2022/07/31 04:30:16;;;;;;;1.70;1.60;;;;;;;15.71;100.00;98309.06;105288;1269;62167;-70
2022/07/31 04:32:42;;;;;;;1.50;1.40;;;;;;;15.70;100.00;98310.33;105251;1270;62164;-70
2022/07/31 04:35:09;;;;;;;1.90;1.30;;;;;;;15.70;100.00;98309.78;105254;1271;62171;-69
2022/07/31 04:37:35;;;;;;;1.40;1.20;;;;;;;15.71;100.00;98314.73;105275;1268;62136;-69
2022/07/31 04:40:01;;;;;;;0.90;0.70;;;;;;;15.70;100.00;98317.71;105267;1271;62556;-70
2022/07/31 04:42:28;;;;;;;0.70;0.70;;;;;;;15.69;100.00;98323.90;105193;1271;62845;-69
2022/07/31 04:44:54;;;;;;;0.70;0.70;;;;;;;15.69;100.00;98326.77;105280;1269;62071;-69
2022/07/31 04:47:20;;;;;;;0.70;0.60;;;;;;;15.68;100.00;98328.25;105227;1271;62287;-69
2022/07/31 04:49:46;;;;;;;0.70;0.60;;;;;;;15.68;100.00;98327.95;105215;1271;62174;-69
2022/07/31 04:52:12;;;;;;;1.00;0.80;;;;;;;15.68;100.00;98327.97;105187;1271;62164;-69
2022/07/31 04:54:39;;;;;;;0.90;0.90;;;;;;;15.64;100.00;98334.04;105258;1271;62190;-70
2022/07/31 04:57:04;;;;;;;0.70;0.50;;;;;;;15.64;100.00;98332.29;105075;1273;62350;-70
2022/07/31 04:59:31;;;;;;;0.60;0.60;;;;;;;15.63;100.00;98338.59;105230;1271;68685;-71
2022/07/31 05:01:57;;;;;;;1.50;0.50;;;;;;;15.63;100.00;98342.23;105212;1271;72524;-70
2022/07/31 05:04:25;;;;;;;0.40;0.40;;;;;;;15.63;100.00;98342.25;105017;1272;62348;-69
2022/07/31 05:06:51;;;;;;;1.30;0.70;;;;;;;15.62;100.00;98350.04;105246;1271;61975;-70
2022/07/31 05:09:21;;;;;;;0.50;0.50;;;;;;;15.59;100.00;98352.75;105288;1271;76474;-70
2022/07/31 05:11:48;;;;;;;0.90;0.90;;;;;;;15.57;100.00;98355.25;105095;1271;69214;-69
2022/07/31 05:14:16;;;;;;;0.70;0.70;;;;;;;15.57;100.00;98354.23;105316;1271;74094;-70
2022/07/31 05:16:42;;;;;;;0.70;0.70;;;;;;;15.54;100.00;98356.33;105265;1271;62084;-70
2022/07/31 05:19:09;;;;;;;1.00;0.80;;;;;;;15.54;100.00;98359.38;105361;1271;62171;-70
2022/07/31 05:21:35;;;;;;;0.70;0.70;;;;;;;15.55;100.00;98361.46;105256;1271;62492;-69
2022/07/31 05:24:01;;;;;;;0.70;0.60;;;;;;;15.53;100.00;98364.10;104996;1274;62216;-70
2022/07/31 05:26:29;;;;;;;1.30;0.70;;;;;;;15.50;100.00;98365.80;105274;1271;62065;-70
2022/07/31 05:28:58;;;;;;;0.50;0.50;;;;;;;15.50;100.00;98367.48;105296;1270;61919;-70
2022/07/31 05:31:26;;;;;;;0.60;0.60;;;;;;;15.48;100.00;98371.04;105279;1271;62212;-69
2022/07/31 05:33:52;;;;;;;0.70;0.70;;;;;;;15.48;100.00;98369.44;105400;1271;76028;-69
2022/07/31 05:36:19;;;;;;;0.70;0.70;;;;;;;15.50;100.00;98369.83;105248;1271;62154;-69
2022/07/31 05:38:45;;;;;;;1.20;0.90;;;;;;;15.51;100.00;98374.55;105238;1271;73339;-69
2022/07/31 05:41:12;;;;;;;1.30;1.00;;;;;;;15.49;100.00;98374.71;105224;1271;62564;-69
2022/07/31 05:43:38;;;;;;;1.00;1.00;;;;;;;15.46;100.00;98378.02;105250;1271;62175;-70
2022/07/31 05:46:05;;;;;;;0.70;0.70;;;;;;;15.48;100.00;98383.99;105163;1271;62188;-69
2022/07/31 05:48:31;;;;;;;1.30;1.10;;;;;;;15.47;100.00;98382.92;105240;1271;62129;-69
2022/07/31 05:50:58;;;;;;;1.10;1.00;;;;;;;15.48;100.00;98384.29;105273;1270;62039;-69
2022/07/31 05:53:25;;;;;;;1.20;1.10;;;;;;;15.48;100.00;98384.28;105323;1271;62264;-69
2022/07/31 05:55:51;;;;;;;1.40;0.90;;;;;;;15.49;100.00;98390.88;105095;1271;62078;-69
2022/07/31 05:58:18;;;;;;;1.20;1.20;;;;;;;15.46;100.00;98394.02;105250;1270;62103;-69
2022/07/31 06:00:46;;;;;;;1.40;1.40;;;;;;;15.44;100.00;98394.58;105310;1271;69346;-69
2022/07/31 06:03:13;;;;;;;1.90;1.70;;;;;;;15.43;100.00;98400.21;105317;1268;74420;-69
2022/07/31 06:05:39;;;;;;;2.00;1.90;;;;;;;15.40;100.00;98403.33;105178;1269;62096;-70
2022/07/31 06:08:08;;;;;;;2.90;2.70;;;;;;;15.37;100.00;98405.82;105291;1268;62157;-69
2022/07/31 06:10:36;;;;;;;2.30;2.20;;;;;;;15.30;100.00;98404.79;105308;1268;76058;-70
2022/07/31 06:13:03;;;;;;;3.00;2.80;;;;;;;15.27;100.00;98414.11;105501;1268;70692;-69
2022/07/31 06:15:29;;;;;;;3.00;2.80;;;;;;;15.24;100.00;98414.90;105366;1268;73362;-70
2022/07/31 06:17:55;;;;;;;3.40;3.20;;;;;;;15.22;100.00;98418.30;105265;1268;62513;-70
2022/07/31 06:20:21;;;;;;;3.70;3.40;;;;;;;15.20;100.00;98419.17;105270;1268;62065;-70
2022/07/31 06:22:47;;;;;;;3.30;3.10;;;;;;;15.19;100.00;98419.47;105016;1271;62950;-70
2022/07/31 06:25:13;;;;;;;3.70;3.40;;;;;;;15.19;100.00;98422.48;105282;1268;62071;-70
2022/07/31 06:27:40;;;;;;;3.50;3.30;;;;;;;15.19;100.00;98421.77;105215;1268;62202;-70
2022/07/31 06:30:09;;;;;;;4.20;3.90;;;;;;;15.20;100.00;98426.02;105251;1268;62071;-70
2022/07/31 06:32:35;;;;;;;3.60;2.80;;;;;;;15.20;100.00;98425.65;105029;1268;62458;-69
2022/07/31 06:35:02;;;;;;;3.10;2.80;;;;;;;15.22;100.00;98430.67;105148;1269;62186;-71
2022/07/31 06:37:30;;;;;;;2.70;2.50;;;;;;;15.20;100.00;98428.70;105436;1268;70471;-70
2022/07/31 06:39:56;;;;;;;2.70;2.50;;;;;;;15.18;100.00;98425.11;105271;1268;62477;-69
2022/07/31 06:42:24;;;;;;;2.60;2.00;;;;;;;15.16;100.00;98427.25;105236;1269;62089;-69
2022/07/31 06:44:51;;;;;;;2.00;1.90;;;;;;;15.17;100.00;98428.09;105239;1268;62062;-67
2022/07/31 06:47:20;;;;;;;2.30;1.80;;;;;;;15.19;100.00;98430.98;105203;1268;76001;-69
2022/07/31 06:49:45;;;;;;;2.40;2.00;;;;;;;15.19;100.00;98434.02;105607;1268;70548;-69
2022/07/31 06:52:12;;;;;;;4.50;1.70;;;;;;;15.18;100.00;98432.60;105224;1268;62189;-69
2022/07/31 06:54:38;;;;;;;1.60;1.50;;;;;;;15.18;100.00;98433.04;105246;1268;62332;-69
2022/07/31 06:57:04;;;;;;;2.10;1.90;;;;;;;15.14;100.00;98433.75;105237;1268;62035;-70
2022/07/31 06:59:30;;;;;;;1.60;1.50;;;;;;;15.12;100.00;98435.74;105221;1268;62094;-70
2022/07/31 07:01:56;;;;;;;1.70;1.60;;;;;;;15.11;100.00;98439.52;105242;1268;62403;-70
2022/07/31 07:04:22;;;;;;;2.10;1.70;;;;;;;15.08;100.00;98439.46;105243;1268;62170;-70
2022/07/31 07:06:48;;;;;;;2.40;2.00;;;;;;;15.08;100.00;98436.11;105294;1268;62178;-70
2022/07/31 07:09:13;;;;;;;2.30;1.60;;;;;;;15.08;100.00;98437.38;105242;1268;76027;-70
2022/07/31 07:11:39;;;;;;;1.90;1.80;;;;;;;15.08;100.00;98438.65;105238;1268;62107;-70
2022/07/31 07:14:05;;;;;;;1.40;1.30;;;;;;;15.07;100.00;98440.50;105207;1268;62157;-71
2022/07/31 07:16:31;;;;;;;1.70;1.60;;;;;;;15.05;100.00;98440.10;105216;1268;62222;-69
2022/07/31 07:18:57;;;;;;;2.20;2.10;;;;;;;15.04;100.00;98444.00;105226;1268;62893;-71
2022/07/31 07:21:23;;;;;;;1.60;1.50;;;;;;;15.05;100.00;98440.83;105234;1268;62162;-70
2022/07/31 07:23:49;;;;;;;1.80;1.70;;;;;;;15.06;100.00;98442.91;105215;1268;62180;-70
2022/07/31 07:26:15;;;;;;;1.80;1.70;;;;;;;15.06;100.00;98449.52;105249;1268;62104;-69
2022/07/31 07:28:41;;;;;;;1.90;1.80;;;;;;;15.06;100.00;98448.41;105249;1268;62309;-69
2022/07/31 07:31:07;;;;;;;1.70;1.60;;;;;;;15.05;100.00;98446.36;105254;1268;62159;-70
2022/07/31 07:33:35;;;;;;;1.80;1.70;;;;;;;15.04;100.00;98451.65;105222;1268;62184;-69
2022/07/31 07:36:01;;;;;;;2.40;2.10;;;;;;;15.02;100.00;98449.36;105236;1268;62098;-70
2022/07/31 07:38:27;;;;;;;2.40;2.20;;;;;;;15.04;100.00;98451.55;105210;1268;62399;-70
2022/07/31 07:40:53;;;;;;;2.60;2.40;;;;;;;15.05;100.00;98450.69;105218;1268;62915;-70
2022/07/31 07:43:19;;;;;;;2.50;2.30;;;;;;;15.05;100.00;98451.56;105214;1268;62187;-70
2022/07/31 07:45:45;;;;;;;2.00;1.80;;;;;;;15.04;100.00;98452.42;105219;1268;62627;-70
2022/07/31 07:48:11;;;;;;;2.20;2.10;;;;;;;15.02;100.00;98456.91;105215;1272;62069;-70
2022/07/31 07:50:37;;;;;;;2.60;2.40;;;;;;;14.98;100.00;98458.30;105208;1268;62183;-70
2022/07/31 07:53:03;;;;;;;3.50;2.40;;;;;;;14.97;100.00;98462.73;105287;1268;62117;-70
2022/07/31 07:55:29;;;;;;;2.40;2.20;;;;;;;14.96;100.00;98461.96;105275;1269;62101;-70
2022/07/31 07:57:55;;;;;;;2.40;2.20;;;;;;;14.95;100.00;98462.55;105259;1271;73765;-69
2022/07/31 08:00:21;;;;;;;2.60;2.00;;;;;;;14.93;100.00;98465.04;105209;1271;63728;-69
2022/07/31 08:02:48;;;;;;;2.20;2.00;;;;;;;14.93;100.00;98467.35;105421;1268;62089;-70
2022/07/31 08:05:15;;;;;;;1.90;1.70;;;;;;;14.96;100.00;98471.76;105241;1268;62160;-70
2022/07/31 08:07:41;;;;;;;2.50;2.30;;;;;;;14.96;100.00;98468.00;105241;1268;62194;-70
2022/07/31 08:10:09;;;;;;;2.40;2.20;;;;;;;14.96;100.00;98469.27;105204;1269;62229;-70
2022/07/31 08:12:36;;;;;;;2.70;2.40;;;;;;;15.00;100.00;98469.73;105289;1268;62097;-70
2022/07/31 08:15:03;;;;;;;2.70;2.00;;;;;;;15.00;100.00;98470.08;105307;1271;62072;-69
2022/07/31 08:17:30;;;;;;;2.40;2.20;;;;;;;14.98;100.00;98472.99;105292;1271;76851;-69
2022/07/31 08:19:56;;;;;;;2.30;2.00;;;;;;;15.02;100.00;98477.98;105216;1268;62384;-69
2022/07/31 08:22:22;;;;;;;2.50;2.30;;;;;;;15.05;100.00;98477.52;105229;1271;62177;-69
2022/07/31 08:24:48;;;;;;;2.30;2.10;;;;;;;15.08;100.00;98477.92;105222;1271;62173;-70
2022/07/31 08:27:22;;;;;;;3.00;2.80;;;;;;;15.09;100.00;98480.04;105247;1271;62218;-70
2022/07/31 08:29:59;;;;;;;2.20;2.00;;;;;;;15.08;100.00;98481.04;105274;1271;75627;-68
2022/07/31 08:32:26;;;;;;;2.40;2.30;;;;;;;15.07;100.00;98479.65;105242;1271;69219;-69
2022/07/31 08:34:54;;;;;;;2.50;2.10;;;;;;;15.10;100.00;98480.48;105198;1271;73243;-70
2022/07/31 08:37:20;;;;;;;2.90;1.80;;;;;;;15.12;100.00;98481.54;105088;1273;62158;-70
2022/07/31 08:39:49;;;;;;;2.80;2.60;;;;;;;15.15;100.00;98482.31;105244;1272;62317;-71
2022/07/31 08:42:17;;;;;;;2.10;1.90;;;;;;;15.19;100.00;98485.02;104886;1274;75675;-70
2022/07/31 08:44:44;;;;;;;2.10;1.90;;;;;;;15.21;100.00;98485.02;105175;1271;69258;-69
2022/07/31 08:47:13;;;;;;;2.10;2.00;;;;;;;15.27;100.00;98487.11;105221;1271;73437;-70
2022/07/31 08:49:42;;;;;;;3.80;2.80;;;;;;;15.32;100.00;98485.73;105256;1270;61960;-70
2022/07/31 08:52:11;;;;;;;2.20;2.00;;;;;;;15.38;100.00;98485.31;105305;1271;62081;-69
2022/07/31 08:54:42;;;;;;;2.80;2.10;;;;;;;15.42;100.00;98488.14;105254;1271;77077;-68
2022/07/31 08:57:10;;;;;;;2.10;1.90;;;;;;;15.42;100.00;98489.83;105352;1271;67403;-70
2022/07/31 08:59:40;;;;;;;2.10;2.00;;;;;;;15.41;100.00;98491.92;105210;1271;73266;-70
2022/07/31 09:02:08;;;;;;;2.30;1.90;;;;;;;15.44;100.00;98497.11;105333;1271;62008;-69
2022/07/31 09:04:34;;;;;;;2.20;2.10;;;;;;;15.44;100.00;98498.75;105262;1272;62082;-70
2022/07/31 09:07:01;;;;;;;2.40;2.20;;;;;;;15.44;100.00;98501.05;105191;1271;62496;-70
2022/07/31 09:09:27;;;;;;;2.80;2.60;;;;;;;15.47;100.00;98500.58;105055;1272;62152;-70
2022/07/31 09:11:54;;;;;;;2.70;2.50;;;;;;;15.47;100.00;98497.72;105204;1271;62291;-69
2022/07/31 09:14:34;;;;;;;2.80;2.60;;;;;;;15.46;100.00;98496.42;105213;1271;62594;-69
2022/07/31 09:17:01;;;;;;;2.70;2.50;;;;;;;15.45;100.00;98503.46;105237;1271;61976;-70
2022/07/31 09:19:43;;;;;;;2.10;2.00;;;;;;;15.46;100.00;98503.60;105385;1271;76253;-71
2022/07/31 09:22:21;;;;;;;2.50;2.30;;;;;;;15.47;100.00;98503.64;104983;1271;70395;-70
2022/07/31 09:24:47;;;;;;;2.90;2.50;;;;;;;15.48;100.00;98503.02;105225;1271;74582;-70
2022/07/31 09:27:16;;;;;;;2.60;2.40;;;;;;;15.52;100.00;98504.61;105228;1271;62126;-69
2022/07/31 09:29:44;;;;;;;2.60;2.40;;;;;;;15.57;100.00;98511.45;105255;1271;62069;-70
2022/07/31 09:32:12;;;;;;;2.40;2.30;;;;;;;15.59;100.00;98511.46;105242;1271;77112;-69
2022/07/31 09:34:40;;;;;;;2.80;2.10;;;;;;;15.61;100.00;98506.65;105386;1270;69389;-69
2022/07/31 09:37:11;;;;;;;3.00;2.80;;;;;;;15.59;100.00;98507.49;105252;1270;74630;-70
2022/07/31 09:39:40;;;;;;;2.60;2.40;;;;;;;15.61;100.00;98506.61;105241;1271;62074;-70
2022/07/31 09:42:07;;;;;;;3.20;3.00;;;;;;;15.65;100.00;98509.61;105229;1269;62159;-70
2022/07/31 09:44:42;;;;;;;3.20;2.90;;;;;;;15.69;100.00;98513.71;105287;1271;77027;-70
2022/07/31 09:47:25;;;;;;;3.10;2.90;;;;;;;15.70;100.00;98516.48;104341;1271;1288016;-69
2022/07/31 09:49:54;;;;;;;2.20;2.10;;;;;;;15.72;100.00;98511.88;105231;1270;74272;-69
2022/07/31 09:52:21;;;;;;;2.70;2.50;;;;;;;15.76;100.00;98513.80;105276;1271;62072;-70
2022/07/31 09:54:46;;;;;;;2.40;2.20;;;;;;;15.77;100.00;98515.14;105313;1271;62362;-70
2022/07/31 09:57:14;;;;;;;4.00;2.40;;;;;;;15.78;100.00;98515.58;105238;1272;62106;-70
2022/07/31 09:59:40;;;;;;;2.30;2.10;;;;;;;15.77;100.00;98519.45;105234;1270;70257;-71
2022/07/31 10:02:07;;;;;;;2.20;2.10;;;;;;;15.75;100.00;98519.43;105240;1274;63582;-68
2022/07/31 10:04:39;;;;;;;1.90;1.80;;;;;;;15.74;100.00;98517.54;105093;1271;62091;-69
2022/07/31 10:07:05;;;;;;;2.10;1.90;;;;;;;15.76;100.00;98522.20;105317;1272;62044;-69
2022/07/31 10:09:33;;;;;;;2.00;1.90;;;;;;;15.80;100.00;98525.77;105305;1271;62178;-69
2022/07/31 10:12:02;;;;;;;2.80;2.60;;;;;;;15.83;100.00;98525.29;105393;1271;71013;-70
2022/07/31 10:14:31;;;;;;;1.90;1.80;;;;;;;15.86;100.00;98528.61;105092;1274;73399;-69
2022/07/31 10:16:59;;;;;;;2.30;2.20;;;;;;;15.85;100.00;98533.14;105260;1269;62078;-71
2022/07/31 10:19:30;;;;;;;2.30;2.20;;;;;;;15.84;100.00;98531.64;105364;1271;62047;-69
2022/07/31 10:22:00;;;;;;;1.80;1.70;;;;;;;15.88;100.00;98532.48;105317;1271;77325;-71
2022/07/31 10:24:30;;;;;;;2.50;1.90;;;;;;;15.94;100.00;98530.83;105335;1271;69380;-70
2022/07/31 10:27:00;;;;;;;;;;;;;;;16.02;100.00;98537.29;105295;1271;74898;-71
2022/07/31 10:29:26;;;;;;;2.00;1.90;;;;;;;16.02;100.00;98536.38;105274;1271;62305;-70
2022/07/31 10:31:52;;;;;;;2.60;2.40;;;;;;;16.02;100.00;98536.88;105278;1271;62071;-70
2022/07/31 10:34:20;;;;;;;2.10;1.80;;;;;;;16.08;100.00;98541.73;105287;1271;62184;-69
2022/07/31 10:36:49;;;;;;;2.60;2.40;;;;;;;16.12;100.00;98540.23;105349;1270;70380;-70
2022/07/31 10:39:30;;;;;;;3.50;3.10;;;;;;;16.12;100.00;98541.00;105082;1273;72640;-70
2022/07/31 10:42:06;;;;;;;2.70;2.40;;;;;;;16.16;100.00;98545.02;105385;1269;62127;-70
2022/07/31 10:44:49;;;;;;;2.70;2.50;;;;;;;16.17;100.00;98541.74;105310;1271;62145;-71
2022/07/31 10:47:16;;;;;;;3.50;2.60;;;;;;;16.16;100.00;98545.42;105258;1271;77325;-71
2022/07/31 10:49:46;;;;;;;2.20;2.10;;;;;;;16.17;100.00;98547.09;105354;1271;70245;-71
2022/07/31 10:52:14;;;;;;;2.20;1.90;;;;;;;16.18;100.00;98550.16;105341;1271;74651;-71
2022/07/31 10:54:43;;;;;;;1.80;1.70;;;;;;;16.19;100.00;98547.56;105268;1271;62390;-70
2022/07/31 10:57:21;;;;;;;2.00;1.70;;;;;;;16.23;100.00;98547.90;105244;1271;62094;-69
2022/07/31 10:59:48;;;;;;;1.70;1.60;;;;;;;16.25;100.00;98549.51;105276;1271;75278;-71
2022/07/31 11:02:30;;;;;;;1.80;1.50;;;;;;;16.29;100.00;98553.69;105315;1271;62189;-70
2022/07/31 11:05:21;;;;;;;2.20;2.10;;;;;;;16.37;100.00;98554.12;105288;1271;73653;-69
2022/07/31 11:08:04;;;;;;;1.90;1.70;;;;;;;16.47;100.00;98552.63;105070;1272;62211;-71
2022/07/31 11:10:32;;;;;;;1.80;1.70;;;;;;;16.48;100.00;98551.92;105403;1271;62041;-70
2022/07/31 11:13:03;;;;;;;2.10;1.90;;;;;;;16.50;100.00;98555.20;105145;1271;76152;-70
2022/07/31 11:15:32;;;;;;;1.80;1.70;;;;;;;16.51;100.00;98549.87;105256;1271;70162;-70
2022/07/31 11:18:10;;;;;;;2.00;1.80;;;;;;;16.49;100.00;98549.92;105352;1271;73077;-72
2022/07/31 11:20:36;;;;;;;2.20;2.00;;;;;;;16.54;100.00;98552.33;105219;1271;62069;-70